Terminal Aerodrome Forecast
Issued by NWS

Home | Current Version | Previous Version | Text Only | Print | Product List | Glossary On
Versions: 1 2 3 4 5 6 7 8 9 10 11 12
000
FTUS42 TJSJ 271700
TAFJBQ
TAF
TJBQ 271740Z 2718/2818 07015KT P6SM VCSH SCT025 SCT040
      TEMPO 2718/2720 -SHRA SCT020 BKN040
     FM272230 09010KT P6SM SCT025
     FM281330 07015KT P6SM SCT025 SCT040
      AMD NOT SKED 2802/2811=

USA.gov is the U.S. government's official web portal to all federal, state and local government web resources and services.